Time;durP1;ratioP1;P1;durP2;ratioP2;P2;SDS_P1;SDS_P2;PMS_P1;PMS_P2;Temp;Humidity;BMP_temperature;BMP_pressure;BME280_temperature;BME280_humidity;BME280_pressure;Samples;Min_cycle;Max_cycle;Signal;HPM_P1;HPM_P2
2023/07/13 00:01:52;;;;;;;0.80;0.50;;;23.70;88.90;;;;;;4988761;28;45108;-63
2023/07/13 00:04:21;;;;;;;1.35;0.50;;;23.70;88.70;;;;;;4977462;28;45210;-64
2023/07/13 00:06:48;;;;;;;1.40;0.70;;;23.70;88.60;;;;;;4985415;28;46079;-63
2023/07/13 00:09:16;;;;;;;1.00;0.65;;;23.70;88.50;;;;;;5001861;28;45355;-63
2023/07/13 00:11:44;;;;;;;1.27;0.50;;;23.70;88.40;;;;;;4979125;28;45205;-63
2023/07/13 00:14:12;;;;;;;0.65;0.47;;;23.70;88.30;;;;;;4981455;28;45425;-63
2023/07/13 00:16:43;;;;;;;2.08;0.63;;;23.60;88.10;;;;;;5008181;28;47472;-62
2023/07/13 00:19:10;;;;;;;0.90;0.50;;;23.70;88.00;;;;;;5003017;28;45241;-63
2023/07/13 00:21:37;;;;;;;0.93;0.40;;;23.70;87.80;;;;;;4987151;28;45109;-63
2023/07/13 00:24:04;;;;;;;0.63;0.50;;;23.70;87.70;;;;;;4977659;28;45286;-63
2023/07/13 00:26:32;;;;;;;1.05;0.50;;;23.70;87.70;;;;;;5004641;28;45264;-63
2023/07/13 00:28:59;;;;;;;0.93;0.40;;;23.70;87.60;;;;;;4976649;28;45239;-64
2023/07/13 00:31:27;;;;;;;1.63;0.60;;;23.70;87.30;;;;;;4987532;28;45153;-63
2023/07/13 00:33:54;;;;;;;1.02;0.52;;;23.60;87.10;;;;;;4983634;28;45281;-63
2023/07/13 00:36:21;;;;;;;0.95;0.40;;;23.70;87.10;;;;;;5018113;28;45277;-63
2023/07/13 00:38:48;;;;;;;1.13;0.50;;;23.70;87.00;;;;;;5010331;28;45135;-63
2023/07/13 00:41:15;;;;;;;1.38;0.50;;;23.60;86.70;;;;;;4992696;28;45130;-63
2023/07/13 00:43:42;;;;;;;1.13;0.52;;;23.70;86.60;;;;;;4983337;28;45293;-63
2023/07/13 00:46:19;;;;;;;0.77;0.40;;;23.70;86.60;;;;;;4989464;28;46657;-64
2023/07/13 00:48:49;;;;;;;3.58;0.60;;;23.60;86.20;;;;;;4992532;28;45700;-63
2023/07/13 00:51:21;;;;;;;2.05;0.77;;;23.60;86.20;;;;;;4986446;28;45178;-63
2023/07/13 00:53:47;;;;;;;2.13;0.80;;;23.60;86.10;;;;;;4991541;28;45177;-63
2023/07/13 00:56:15;;;;;;;0.63;0.40;;;23.60;85.90;;;;;;4988084;28;47260;-63
2023/07/13 00:58:42;;;;;;;2.35;0.52;;;23.60;86.80;;;;;;4990382;28;45248;-63
2023/07/13 01:01:09;;;;;;;0.63;0.40;;;23.60;85.70;;;;;;4987066;28;45200;-63
2023/07/13 01:03:37;;;;;;;3.10;0.70;;;23.60;85.70;;;;;;4981056;28;45285;-63
2023/07/13 01:06:06;;;;;;;0.52;0.52;;;23.60;85.60;;;;;;4982592;28;47193;-63
2023/07/13 01:08:33;;;;;;;0.95;0.57;;;23.60;85.40;;;;;;4990182;28;45390;-63
2023/07/13 01:10:59;;;;;;;2.63;0.70;;;23.60;85.40;;;;;;4986832;28;45097;-63
2023/07/13 01:13:26;;;;;;;1.70;0.55;;;23.60;85.40;;;;;;4983409;28;45186;-63
2023/07/13 01:15:57;;;;;;;2.10;0.50;;;23.60;85.20;;;;;;4980973;28;47102;-63
2023/07/13 01:18:27;;;;;;;0.68;0.40;;;23.60;85.10;;;;;;5011720;28;45276;-63
2023/07/13 01:20:56;;;;;;;0.75;0.50;;;23.60;85.00;;;;;;4979571;28;45216;-63
2023/07/13 01:23:24;;;;;;;0.77;0.50;;;23.60;84.90;;;;;;4979780;28;45485;-63
2023/07/13 01:25:51;;;;;;;3.50;0.75;;;23.60;84.80;;;;;;5027682;28;47209;-63
2023/07/13 01:28:18;;;;;;;0.93;0.60;;;23.60;84.70;;;;;;4995881;28;46177;-64
2023/07/13 01:30:46;;;;;;;1.88;0.60;;;23.60;84.60;;;;;;4986840;28;45280;-63
2023/07/13 01:33:14;;;;;;;1.10;0.68;;;23.60;84.50;;;;;;4989503;28;45350;-63
2023/07/13 01:35:42;;;;;;;1.48;0.50;;;23.60;84.50;;;;;;5017464;28;46484;-63
2023/07/13 01:38:11;;;;;;;1.55;0.50;;;23.60;84.50;;;;;;4990147;28;45321;-63
2023/07/13 01:40:38;;;;;;;1.52;0.60;;;23.60;84.40;;;;;;5002176;28;45187;-63
2023/07/13 01:43:06;;;;;;;4.03;0.68;;;23.70;84.40;;;;;;4998051;28;45487;-63
2023/07/13 01:45:33;;;;;;;1.05;0.52;;;23.60;84.30;;;;;;4992164;28;46620;-63
2023/07/13 01:48:00;;;;;;;1.92;0.52;;;23.60;84.30;;;;;;4984338;28;45110;-63
2023/07/13 01:50:26;;;;;;;1.52;0.43;;;23.60;84.30;;;;;;4990298;28;45263;-63
2023/07/13 01:52:53;;;;;;;0.60;0.38;;;23.60;84.30;;;;;;4975260;28;45731;-64
2023/07/13 01:55:22;;;;;;;1.15;0.60;;;23.60;84.30;;;;;;4980710;28;47494;-63
2023/07/13 01:57:50;;;;;;;1.27;0.55;;;23.60;84.20;;;;;;4986710;28;45802;-63
2023/07/13 02:00:17;;;;;;;1.50;0.57;;;23.60;84.30;;;;;;4977116;28;45303;-63
2023/07/13 02:02:44;;;;;;;1.17;0.55;;;23.60;84.30;;;;;;5033067;28;45255;-63
2023/07/13 02:05:11;;;;;;;1.75;0.50;;;23.60;84.30;;;;;;4993278;28;47295;-63
2023/07/13 02:07:38;;;;;;;0.95;0.57;;;23.60;84.30;;;;;;4979944;28;45067;-63
2023/07/13 02:10:06;;;;;;;1.05;0.60;;;23.60;84.30;;;;;;4979604;28;45102;-64
2023/07/13 02:12:34;;;;;;;1.73;0.50;;;23.60;84.30;;;;;;5010413;28;45204;-63
2023/07/13 02:15:01;;;;;;;2.08;0.70;;;23.60;84.30;;;;;;4979303;28;45181;-63
2023/07/13 02:17:28;;;;;;;1.30;0.60;;;23.60;84.30;;;;;;4981531;28;45569;-63
2023/07/13 02:19:54;;;;;;;1.58;0.52;;;23.60;84.40;;;;;;4980065;28;45082;-63
2023/07/13 02:22:22;;;;;;;1.23;0.50;;;23.60;84.40;;;;;;4978670;28;45362;-64
2023/07/13 02:24:49;;;;;;;1.33;0.52;;;23.60;84.70;;;;;;5006379;28;47657;-63
2023/07/13 02:27:16;;;;;;;3.33;0.82;;;23.60;84.70;;;;;;5028814;28;45349;-63
2023/07/13 02:29:44;;;;;;;2.72;0.80;;;23.60;84.60;;;;;;4979110;28;45077;-63
2023/07/13 02:32:11;;;;;;;1.95;0.80;;;23.60;84.50;;;;;;4993486;28;45378;-63
2023/07/13 02:34:38;;;;;;;2.80;0.70;;;23.60;84.50;;;;;;5027095;28;46239;-63
2023/07/13 02:37:05;;;;;;;0.60;0.40;;;23.60;84.40;;;;;;5032669;28;45373;-63
2023/07/13 02:39:33;;;;;;;1.50;0.73;;;23.60;84.30;;;;;;5002603;28;45289;-63
2023/07/13 02:42:00;;;;;;;1.20;0.50;;;23.60;84.30;;;;;;4985384;28;45446;-64
2023/07/13 02:44:27;;;;;;;0.80;0.50;;;23.60;84.20;;;;;;4984072;28;45422;-63
2023/07/13 02:46:55;;;;;;;1.88;0.70;;;23.60;84.20;;;;;;4985340;28;45225;-63
2023/07/13 02:49:22;;;;;;;1.15;0.50;;;23.60;84.10;;;;;;4992845;28;45136;-63
2023/07/13 02:51:49;;;;;;;0.98;0.50;;;23.60;84.00;;;;;;4996017;28;45094;-63
2023/07/13 02:54:16;;;;;;;2.50;0.50;;;23.60;84.10;;;;;;4990648;28;45353;-63
2023/07/13 02:56:43;;;;;;;2.88;0.68;;;23.60;84.00;;;;;;4987081;28;45417;-64
2023/07/13 02:59:10;;;;;;;2.28;0.70;;;23.60;84.00;;;;;;4976989;28;45384;-65
2023/07/13 03:01:37;;;;;;;1.73;0.60;;;23.60;84.00;;;;;;4989374;28;45255;-64
2023/07/13 03:04:06;;;;;;;2.78;0.80;;;23.60;84.10;;;;;;5000789;28;45155;-63
2023/07/13 03:06:33;;;;;;;1.75;0.60;;;23.60;84.10;;;;;;4976850;28;45177;-63
2023/07/13 03:09:00;;;;;;;1.77;0.60;;;23.60;84.10;;;;;;4979679;28;45156;-63
2023/07/13 03:11:28;;;;;;;3.03;0.60;;;23.60;84.10;;;;;;4989787;28;45255;-63
2023/07/13 03:13:56;;;;;;;1.80;0.50;;;23.60;84.20;;;;;;4988073;28;45177;-63
2023/07/13 03:16:22;;;;;;;1.38;0.70;;;23.60;84.10;;;;;;4978454;28;45159;-63
2023/07/13 03:18:50;;;;;;;2.33;0.60;;;23.50;84.00;;;;;;4972410;28;45412;-63
2023/07/13 03:21:18;;;;;;;2.85;0.77;;;23.60;84.00;;;;;;4997727;28;45134;-63
2023/07/13 03:23:45;;;;;;;1.52;0.50;;;23.60;84.10;;;;;;4983409;28;45179;-63
2023/07/13 03:26:14;;;;;;;2.88;0.70;;;23.60;84.00;;;;;;4982522;28;45220;-64
2023/07/13 03:28:41;;;;;;;1.67;0.57;;;23.60;84.00;;;;;;4980920;28;45147;-63
2023/07/13 03:31:10;;;;;;;1.63;0.60;;;23.50;83.70;;;;;;5003866;28;45173;-63
2023/07/13 03:33:37;;;;;;;2.00;0.50;;;23.60;83.60;;;;;;5007123;28;46997;-63
2023/07/13 03:36:04;;;;;;;2.28;0.82;;;23.60;83.60;;;;;;4980158;28;45131;-63
2023/07/13 03:38:33;;;;;;;1.40;0.65;;;23.60;83.60;;;;;;5003039;28;45181;-63
2023/07/13 03:41:00;;;;;;;1.95;0.70;;;23.60;83.50;;;;;;4984925;28;45359;-63
2023/07/13 03:43:27;;;;;;;2.40;0.77;;;23.60;83.40;;;;;;4982066;28;47972;-63
2023/07/13 03:45:53;;;;;;;1.13;0.50;;;23.60;83.30;;;;;;4971451;28;45141;-64
2023/07/13 03:48:20;;;;;;;1.48;0.60;;;23.60;83.30;;;;;;4983622;28;45177;-63
2023/07/13 03:50:49;;;;;;;2.40;0.45;;;23.60;83.20;;;;;;4979876;28;45405;-64
2023/07/13 03:53:15;;;;;;;3.83;0.60;;;23.60;83.10;;;;;;4981378;28;46300;-61
2023/07/13 03:55:44;;;;;;;10.20;1.63;;;23.60;84.90;;;;;;5026225;28;45298;-69
2023/07/13 03:58:30;;;;;;;9.18;1.60;;;17.90;91.00;;;;;;4975269;28;45454;-69
2023/07/13 04:00:58;;;;;;;9.68;1.50;;;15.90;97.60;;;;;;5009213;28;45173;-69
2023/07/13 04:03:24;;;;;;;4.82;1.33;;;15.60;99.40;;;;;;4976468;28;46448;-69
2023/07/13 04:05:52;;;;;;;7.38;1.90;;;15.50;99.90;;;;;;4981814;28;45054;-68
2023/07/13 04:08:18;;;;;;;5.85;1.27;;;15.50;99.90;;;;;;4978433;28;45221;-68
2023/07/13 04:10:46;;;;;;;8.13;1.30;;;15.40;99.90;;;;;;4970257;28;45333;-69
2023/07/13 04:13:14;;;;;;;6.07;1.48;;;15.40;99.90;;;;;;4994700;28;47498;-68
2023/07/13 04:15:41;;;;;;;11.68;1.70;;;15.40;99.90;;;;;;5015691;28;45892;-68
2023/07/13 04:18:08;;;;;;;10.07;1.73;;;15.40;99.90;;;;;;4999917;28;45146;-68
2023/07/13 04:20:35;;;;;;;8.73;1.45;;;15.40;99.90;;;;;;4988130;28;45426;-68
2023/07/13 04:23:02;;;;;;;7.18;1.27;;;15.40;99.90;;;;;;4969619;28;47461;-68
2023/07/13 04:25:28;;;;;;;8.50;1.48;;;15.50;99.90;;;;;;4978160;28;45126;-69
2023/07/13 04:27:56;;;;;;;6.80;1.50;;;15.50;99.90;;;;;;4988286;28;45167;-68
2023/07/13 04:30:23;;;;;;;11.48;2.08;;;15.40;99.90;;;;;;4976879;28;45134;-69
2023/07/13 04:32:53;;;;;;;6.95;1.33;;;15.40;99.90;;;;;;4981234;28;46553;-68
2023/07/13 04:35:21;;;;;;;9.88;1.50;;;15.40;99.90;;;;;;4976395;28;45059;-68
2023/07/13 04:37:50;;;;;;;7.47;1.60;;;15.50;99.90;;;;;;4981504;28;45276;-68
2023/07/13 04:40:17;;;;;;;3.88;1.30;;;15.50;99.90;;;;;;5004581;28;45207;-68
2023/07/13 04:42:44;;;;;;;9.10;1.65;;;15.60;99.90;;;;;;4985282;28;46383;-68
2023/07/13 04:45:13;;;;;;;9.60;1.50;;;15.60;99.90;;;;;;4981530;28;45139;-68
2023/07/13 04:47:41;;;;;;;7.32;1.50;;;15.60;99.90;;;;;;5015486;28;45145;-67
2023/07/13 04:50:10;;;;;;;10.88;2.10;;;15.70;99.90;;;;;;4965948;28;45400;-69
2023/07/13 04:52:37;;;;;;;5.97;1.38;;;15.70;99.90;;;;;;4968519;28;46656;-68
2023/07/13 04:55:04;;;;;;;13.10;1.77;;;15.80;99.90;;;;;;4988859;28;45133;-67
2023/07/13 04:57:32;;;;;;;9.52;1.85;;;15.80;99.90;;;;;;4999501;28;45264;-67
2023/07/13 05:00:00;;;;;;;12.57;1.80;;;15.90;99.90;;;;;;4972911;28;45331;-68
2023/07/13 05:02:31;;;;;;;11.30;1.60;;;15.90;99.90;;;;;;4979023;28;46546;-68
2023/07/13 05:04:57;;;;;;;10.93;2.00;;;15.90;99.90;;;;;;5012780;28;45231;-67
2023/07/13 05:07:26;;;;;;;9.63;1.98;;;15.90;99.90;;;;;;4962014;28;45248;-68
2023/07/13 05:09:53;;;;;;;13.73;1.92;;;16.10;99.90;;;;;;4984200;28;45138;-68
2023/07/13 05:12:20;;;;;;;12.13;1.73;;;16.10;99.90;;;;;;4995629;28;48027;-69
2023/07/13 05:14:48;;;;;;;12.18;2.50;;;16.20;99.90;;;;;;4980701;28;45117;-68
2023/07/13 05:17:15;;;;;;;8.77;1.90;;;16.20;99.90;;;;;;4981089;28;45413;-68
2023/07/13 05:19:43;;;;;;;13.50;2.20;;;16.20;99.90;;;;;;4980044;28;45401;-68
2023/07/13 05:22:10;;;;;;;10.15;1.80;;;16.30;99.90;;;;;;4976134;28;46253;-68
2023/07/13 05:24:37;;;;;;;8.98;1.30;;;16.30;99.90;;;;;;4975189;28;46035;-68
2023/07/13 05:27:04;;;;;;;9.77;1.92;;;16.40;99.90;;;;;;4982870;28;45179;-68
2023/07/13 05:29:31;;;;;;;22.05;2.70;;;16.40;99.90;;;;;;4978612;28;45590;-68
2023/07/13 05:31:58;;;;;;;11.07;1.88;;;16.40;99.90;;;;;;4980175;28;46074;-68
2023/07/13 05:34:25;;;;;;;13.07;1.45;;;16.40;99.90;;;;;;4977609;28;45292;-68
2023/07/13 05:36:53;;;;;;;15.40;1.98;;;16.40;99.90;;;;;;4988029;28;45214;-68
2023/07/13 05:39:20;;;;;;;13.88;2.15;;;16.40;99.90;;;;;;5031615;28;45222;-67
2023/07/13 05:41:46;;;;;;;9.27;2.45;;;16.40;99.90;;;;;;4988584;28;46571;-68
2023/07/13 05:44:13;;;;;;;12.23;2.15;;;16.40;99.90;;;;;;4980452;28;45265;-68
2023/07/13 05:46:40;;;;;;;9.75;1.90;;;16.60;99.90;;;;;;5003596;28;45253;-68
2023/07/13 05:49:07;;;;;;;10.52;1.85;;;16.60;99.90;;;;;;5004453;28;45334;-68
2023/07/13 05:51:34;;;;;;;4.57;1.40;;;16.50;99.90;;;;;;4989852;28;45236;-68
2023/07/13 05:54:02;;;;;;;6.45;1.70;;;16.60;99.90;;;;;;4984870;28;45154;-67
2023/07/13 05:56:29;;;;;;;12.00;2.65;;;16.60;99.90;;;;;;4976888;28;45283;-67
2023/07/13 05:58:55;;;;;;;9.82;1.92;;;16.50;99.90;;;;;;4986619;28;45417;-68
2023/07/13 06:01:23;;;;;;;11.07;2.22;;;16.60;99.90;;;;;;5006317;28;46110;-68
2023/07/13 06:03:50;;;;;;;8.02;2.22;;;16.60;99.90;;;;;;4978713;28;45291;-68
2023/07/13 06:06:17;;;;;;;8.80;2.40;;;16.60;99.90;;;;;;4980187;28;45095;-67
2023/07/13 06:08:44;;;;;;;8.50;2.22;;;16.80;99.90;;;;;;4983053;28;45310;-68
2023/07/13 06:11:15;;;;;;;14.80;2.25;;;16.80;99.90;;;;;;5015845;28;46598;-68
2023/07/13 06:13:43;;;;;;;11.18;2.22;;;16.90;99.90;;;;;;4980621;28;45432;-68
2023/07/13 06:16:10;;;;;;;9.02;2.08;;;16.90;99.90;;;;;;5005786;28;45269;-68
2023/07/13 06:18:37;;;;;;;8.32;1.80;;;16.90;99.90;;;;;;4991440;28;45085;-68
2023/07/13 06:21:08;;;;;;;14.43;3.85;;;17.00;99.90;;;;;;4973510;28;46537;-69
2023/07/13 06:23:35;;;;;;;13.80;3.00;;;17.00;99.90;;;;;;5006778;28;45138;-69
2023/07/13 06:26:02;;;;;;;12.68;2.20;;;17.00;99.90;;;;;;4997646;28;45176;-69
2023/07/13 06:28:31;;;;;;;9.80;2.13;;;17.20;99.90;;;;;;5007951;28;45278;-70
2023/07/13 06:30:58;;;;;;;6.60;2.22;;;17.20;99.90;;;;;;4982546;28;47495;-69
2023/07/13 06:33:25;;;;;;;10.73;2.10;;;17.00;99.90;;;;;;5013889;28;45221;-70
2023/07/13 06:35:51;;;;;;;8.70;1.80;;;17.20;99.90;;;;;;5007901;28;45382;-69
2023/07/13 06:38:18;;;;;;;12.65;2.00;;;17.40;99.90;;;;;;5027680;28;45296;-69
2023/07/13 06:40:45;;;;;;;12.35;2.60;;;17.40;99.90;;;;;;5007643;28;46405;-69
2023/07/13 06:43:12;;;;;;;9.75;2.13;;;17.80;99.90;;;;;;4979108;28;45217;-69
2023/07/13 06:45:45;;;;;;;9.63;2.45;;;17.90;99.90;;;;;;4978390;28;45287;-68
2023/07/13 06:48:12;;;;;;;16.63;2.50;;;17.70;99.90;;;;;;4981452;28;45241;-70
2023/07/13 06:50:39;;;;;;;10.48;2.15;;;17.70;99.90;;;;;;5005531;28;47982;-69
2023/07/13 06:53:05;;;;;;;8.63;1.90;;;17.50;99.90;;;;;;4975964;28;45225;-68
2023/07/13 06:55:32;;;;;;;11.18;2.15;;;17.30;99.90;;;;;;5010039;28;45157;-69
2023/07/13 06:57:59;;;;;;;13.52;2.45;;;17.20;99.90;;;;;;4990526;28;45316;-68
2023/07/13 07:00:26;;;;;;;8.35;2.30;;;17.30;99.90;;;;;;5021183;28;47947;-69
2023/07/13 07:02:54;;;;;;;15.38;2.42;;;17.40;99.90;;;;;;4978110;28;45522;-68
2023/07/13 07:05:21;;;;;;;15.00;2.60;;;17.40;99.90;;;;;;4980188;28;45220;-68
2023/07/13 07:07:48;;;;;;;12.35;2.50;;;17.60;99.90;;;;;;4972479;28;45355;-68
2023/07/13 07:10:15;;;;;;;16.98;2.50;;;17.70;99.90;;;;;;4973288;28;46265;-68
2023/07/13 07:12:42;;;;;;;13.00;2.17;;;17.70;99.90;;;;;;4988267;28;45230;-68
2023/07/13 07:15:09;;;;;;;15.30;2.85;;;17.70;99.90;;;;;;5003595;28;45213;-68
2023/07/13 07:17:36;;;;;;;15.30;2.95;;;17.40;99.90;;;;;;4984867;28;45253;-69
2023/07/13 07:20:05;;;;;;;11.60;1.95;;;17.50;99.90;;;;;;4987908;28;47247;-68
2023/07/13 07:22:32;;;;;;;8.80;2.05;;;17.60;99.90;;;;;;4975266;28;45098;-68
2023/07/13 07:24:59;;;;;;;13.65;2.55;;;17.60;99.90;;;;;;4975944;28;45291;-68
2023/07/13 07:27:26;;;;;;;11.00;2.13;;;17.80;99.90;;;;;;5016349;28;45171;-68
2023/07/13 07:29:53;;;;;;;16.23;2.80;;;17.80;99.90;;;;;;5034886;28;46395;-68
2023/07/13 07:32:20;;;;;;;17.17;3.35;;;17.70;99.90;;;;;;5029675;28;45343;-68
2023/07/13 07:34:47;;;;;;;12.27;2.30;;;17.70;99.90;;;;;;4991182;28;45214;-69
2023/07/13 07:37:15;;;;;;;13.57;3.00;;;17.80;99.90;;;;;;5029448;28;45247;-70
2023/07/13 07:39:43;;;;;;;10.32;2.58;;;17.90;99.90;;;;;;4997376;28;47014;-69
2023/07/13 07:42:10;;;;;;;12.57;3.30;;;17.70;99.90;;;;;;5020639;28;45134;-69
2023/07/13 07:44:37;;;;;;;20.60;3.47;;;17.80;99.90;;;;;;5039424;28;45287;-69
2023/07/13 07:47:04;;;;;;;14.05;2.58;;;18.10;99.90;;;;;;5000397;28;45125;-69
2023/07/13 07:49:31;;;;;;;12.18;2.28;;;18.10;99.90;;;;;;5029150;28;45631;-69
2023/07/13 07:51:58;;;;;;;18.67;3.22;;;18.10;99.90;;;;;;4981849;28;45405;-71
2023/07/13 07:54:26;;;;;;;11.70;2.80;;;18.20;99.90;;;;;;5016248;28;45196;-69
2023/07/13 07:56:53;;;;;;;11.60;2.58;;;18.30;99.90;;;;;;4982230;28;45269;-69
2023/07/13 07:59:20;;;;;;;10.18;3.03;;;18.50;99.90;;;;;;5015190;28;47101;-69
2023/07/13 08:01:50;;;;;;;17.17;2.65;;;18.30;99.90;;;;;;4986577;28;46187;-69
2023/07/13 08:04:16;;;;;;;12.02;2.88;;;18.20;99.90;;;;;;5018334;28;45229;-69
2023/07/13 08:06:43;;;;;;;13.98;3.00;;;18.20;99.90;;;;;;4982642;28;45415;-70
2023/07/13 08:09:10;;;;;;;9.48;2.53;;;18.30;99.90;;;;;;4981494;28;45511;-69
2023/07/13 08:11:38;;;;;;;15.32;3.03;;;18.20;99.90;;;;;;5015409;28;45130;-69
2023/07/13 08:14:05;;;;;;;10.48;2.33;;;18.20;99.90;;;;;;4981292;28;45218;-69
2023/07/13 08:16:32;;;;;;;15.68;3.22;;;19.30;98.80;;;;;;5015997;28;45114;-69
2023/07/13 08:18:59;;;;;;;12.55;2.30;;;18.50;99.90;;;;;;5020258;28;48941;-69
2023/07/13 08:21:26;;;;;;;16.40;2.92;;;18.40;99.90;;;;;;4980721;28;45198;-70
2023/07/13 08:23:53;;;;;;;12.48;2.75;;;18.80;99.90;;;;;;4979604;28;45333;-70
2023/07/13 08:26:20;;;;;;;14.77;2.70;;;19.00;99.50;;;;;;5005920;28;45309;-70
2023/07/13 08:28:48;;;;;;;5.63;2.50;;;19.50;98.90;;;;;;5015150;28;47382;-69
2023/07/13 08:31:15;;;;;;;14.93;2.72;;;18.80;99.80;;;;;;4995767;28;45160;-71
2023/07/13 08:33:42;;;;;;;9.43;2.70;;;18.60;99.90;;;;;;4971610;28;45304;-70
2023/07/13 08:36:09;;;;;;;16.15;3.17;;;18.60;99.90;;;;;;4979837;28;45334;-70
2023/07/13 08:38:35;;;;;;;9.98;2.60;;;18.60;99.90;;;;;;4979530;28;46090;-71
2023/07/13 08:41:11;;;;;;;12.25;2.75;;;18.80;99.90;;;;;;4978054;28;45173;-71
2023/07/13 08:43:39;;;;;;;8.00;2.60;;;18.80;99.90;;;;;;4980438;28;45259;-70
2023/07/13 08:46:12;;;;;;;6.95;2.38;;;19.00;99.40;;;;;;4979194;28;45501;-69
2023/07/13 08:48:44;;;;;;;11.10;2.90;;;19.30;99.70;;;;;;4971691;28;45287;-70
2023/07/13 08:51:21;;;;;;;12.15;2.67;;;19.70;98.20;;;;;;4970823;28;45344;-70
2023/07/13 08:53:52;;;;;;;9.25;2.60;;;20.10;96.80;;;;;;4967317;28;45355;-69
2023/07/13 08:56:22;;;;;;;10.18;2.17;;;20.20;96.70;;;;;;4977555;28;45170;-70
2023/07/13 08:58:56;;;;;;;12.30;2.88;;;20.20;96.60;;;;;;4967841;28;47330;-70
2023/07/13 09:01:32;;;;;;;8.57;2.10;;;20.20;96.90;;;;;;4971133;28;45308;-70
2023/07/13 09:04:10;;;;;;;11.93;1.90;;;20.00;96.60;;;;;;4977474;28;45323;-69
2023/07/13 09:06:50;;;;;;;12.15;2.28;;;20.20;97.30;;;;;;4969791;28;45206;-70
2023/07/13 09:09:25;;;;;;;8.02;1.73;;;20.40;94.60;;;;;;4972444;28;45323;-69
2023/07/13 09:12:01;;;;;;;8.30;2.35;;;20.50;95.10;;;;;;5012676;28;45266;-69
2023/07/13 09:14:39;;;;;;;12.73;1.98;;;20.60;94.90;;;;;;4974767;28;45225;-69
2023/07/13 09:17:13;;;;;;;9.88;2.35;;;20.70;95.10;;;;;;4981097;28;45223;-70
2023/07/13 09:19:42;;;;;;;15.05;1.67;;;20.70;94.70;;;;;;5013198;28;46242;-70
2023/07/13 09:22:16;;;;;;;10.30;2.00;;;20.70;94.70;;;;;;5015501;28;45144;-70
2023/07/13 09:24:56;;;;;;;16.13;4.15;;;20.80;94.40;;;;;;4980623;28;45270;-71
2023/07/13 09:27:28;;;;;;;9.10;2.50;;;20.70;94.70;;;;;;5006847;28;45320;-69
2023/07/13 09:30:03;;;;;;;7.80;2.00;;;21.00;94.40;;;;;;4970565;28;47589;-69
2023/07/13 09:32:32;;;;;;;4.57;1.52;;;21.00;94.40;;;;;;4975953;28;45168;-69
2023/07/13 09:35:00;;;;;;;7.03;1.88;;;21.20;93.30;;;;;;4990041;28;45057;-69
2023/07/13 09:37:31;;;;;;;9.82;2.20;;;21.20;93.10;;;;;;5029413;28;45414;-69
2023/07/13 09:40:00;;;;;;;5.63;1.50;;;21.10;92.70;;;;;;4985801;28;47005;-70
2023/07/13 09:42:28;;;;;;;7.00;1.58;;;21.00;93.70;;;;;;4980564;28;45282;-70
2023/07/13 09:44:57;;;;;;;11.57;1.90;;;20.90;93.00;;;;;;4979305;28;45165;-69
2023/07/13 09:47:26;;;;;;;8.02;1.92;;;20.90;93.30;;;;;;4961561;28;45165;-70
2023/07/13 09:49:59;;;;;;;8.00;1.70;;;21.00;93.60;;;;;;4969590;28;46809;-69
2023/07/13 09:52:28;;;;;;;8.20;1.45;;;21.00;93.50;;;;;;5004619;28;45249;-70
2023/07/13 09:54:58;;;;;;;8.20;2.10;;;21.20;92.00;;;;;;4988606;28;45176;-70
2023/07/13 09:57:27;;;;;;;6.95;1.80;;;21.20;93.20;;;;;;4972450;28;45300;-70
2023/07/13 09:59:58;;;;;;;7.82;1.65;;;21.40;91.80;;;;;;4971505;28;48626;-69
2023/07/13 10:02:27;;;;;;;3.50;1.58;;;21.40;91.30;;;;;;4980857;28;45136;-70
2023/07/13 10:05:00;;;;;;;13.07;1.85;;;21.30;92.40;;;;;;4979397;28;45241;-70
2023/07/13 10:07:28;;;;;;;6.95;1.65;;;21.40;91.90;;;;;;4972589;28;45191;-69
2023/07/13 10:09:55;;;;;;;9.68;2.10;;;21.40;91.20;;;;;;5013648;28;47153;-69
2023/07/13 10:12:24;;;;;;;8.15;1.80;;;21.30;91.70;;;;;;4977514;28;45836;-69
2023/07/13 10:14:54;;;;;;;10.57;1.95;;;21.40;91.90;;;;;;4978071;28;45353;-69
2023/07/13 10:17:30;;;;;;;7.65;2.17;;;21.50;92.20;;;;;;4980709;28;45228;-70
2023/07/13 10:20:00;;;;;;;9.88;1.90;;;21.50;91.10;;;;;;4979508;28;47258;-69
2023/07/13 10:22:32;;;;;;;6.40;1.83;;;21.50;91.20;;;;;;4980307;28;45133;-68
2023/07/13 10:25:00;;;;;;;7.22;1.63;;;21.30;91.30;;;;;;5025556;28;45213;-71
2023/07/13 10:27:34;;;;;;;10.65;2.05;;;21.40;92.50;;;;;;4965989;28;45358;-71
2023/07/13 10:30:08;;;;;;;7.30;1.77;;;21.30;91.50;;;;;;4967853;28;45305;-69
2023/07/13 10:32:35;;;;;;;17.58;1.90;;;21.30;91.30;;;;;;4969866;28;45829;-70
2023/07/13 10:35:07;;;;;;;13.00;1.92;;;21.20;90.90;;;;;;4983329;28;45279;-70
2023/07/13 10:37:44;;;;;;;9.73;1.95;;;21.20;91.60;;;;;;5021888;28;45215;-70
2023/07/13 10:40:17;;;;;;;11.35;1.73;;;21.40;91.50;;;;;;5012881;28;46439;-70
2023/07/13 10:42:47;;;;;;;4.38;1.45;;;21.40;90.00;;;;;;4990912;28;45569;-71
2023/07/13 10:45:16;;;;;;;6.97;1.65;;;21.20;91.30;;;;;;5023363;28;45469;-69
2023/07/13 10:47:44;;;;;;;5.57;1.63;;;21.20;90.70;;;;;;5005263;28;45500;-70
2023/07/13 10:50:19;;;;;;;9.18;1.70;;;21.20;91.60;;;;;;5012618;28;46960;-70
2023/07/13 10:52:48;;;;;;;10.00;2.03;;;21.20;91.30;;;;;;4979376;28;45310;-71
2023/07/13 10:55:38;;;;;;;5.85;1.52;;;21.20;91.60;;;;;;4971557;28;45092;-71
2023/07/13 10:58:14;;;;;;;8.88;1.55;;;21.30;90.80;;;;;;4975644;28;45281;-70
2023/07/13 11:00:48;;;;;;;6.50;1.60;;;21.30;90.40;;;;;;4975213;28;45439;-69
2023/07/13 11:03:19;;;;;;;7.68;1.60;;;21.30;90.60;;;;;;4971761;28;45247;-69
2023/07/13 11:05:51;;;;;;;6.57;1.33;;;21.30;90.60;;;;;;4985236;28;45311;-70
2023/07/13 11:08:22;;;;;;;4.45;1.52;;;21.20;90.50;;;;;;4979997;28;45203;-70
2023/07/13 11:10:54;;;;;;;7.35;1.65;;;21.30;90.80;;;;;;4978454;28;47428;-69
2023/07/13 11:13:39;;;;;;;9.82;1.63;;;21.30;91.00;;;;;;4974464;28;45308;-70
2023/07/13 11:16:14;;;;;;;5.07;1.50;;;21.30;90.60;;;;;;4979964;28;45277;-70
2023/07/13 11:18:42;;;;;;;4.97;1.52;;;21.40;90.50;;;;;;4979883;28;45193;-71
2023/07/13 11:21:18;;;;;;;11.38;2.05;;;21.40;90.40;;;;;;4978203;28;45267;-69
2023/07/13 11:23:47;;;;;;;8.43;1.48;;;21.50;91.20;;;;;;4979011;28;45140;-71
2023/07/13 11:26:42;;;;;;;18.50;1.98;;;21.50;90.10;;;;;;4979108;28;45181;-70
2023/07/13 11:29:26;;;;;;;7.28;1.67;;;21.40;91.10;;;;;;4978730;28;45453;-69
2023/07/13 11:31:55;;;;;;;11.32;1.83;;;21.60;90.90;;;;;;4979318;28;45210;-70
2023/07/13 11:34:28;;;;;;;5.22;1.55;;;21.70;88.00;;;;;;4979355;28;45327;-70
2023/07/13 11:36:59;;;;;;;10.35;1.60;;;21.80;89.80;;;;;;4979075;28;45258;-69
2023/07/13 11:39:31;;;;;;;7.05;1.42;;;21.90;87.50;;;;;;4973409;28;45287;-69
2023/07/13 11:42:01;;;;;;;7.15;1.92;;;22.00;87.40;;;;;;4977921;28;45182;-69
2023/07/13 11:44:30;;;;;;;7.57;1.55;;;21.90;85.70;;;;;;4977713;28;45230;-69
2023/07/13 11:47:00;;;;;;;5.57;1.45;;;21.90;87.60;;;;;;4980840;28;45070;-70
2023/07/13 11:49:30;;;;;;;3.60;1.23;;;22.10;85.40;;;;;;4980745;28;45336;-70
2023/07/13 11:52:00;;;;;;;13.85;1.80;;;22.30;82.00;;;;;;4978707;28;46055;-70
2023/07/13 11:54:29;;;;;;;4.90;1.10;;;22.40;82.10;;;;;;4985398;28;45723;-70
2023/07/13 11:57:00;;;;;;;10.60;1.85;;;22.60;80.50;;;;;;5012482;28;45217;-69
2023/07/13 11:59:27;;;;;;;5.78;1.40;;;22.60;79.10;;;;;;4976056;28;45257;-69
2023/07/13 12:01:55;;;;;;;12.55;1.30;;;22.50;78.00;;;;;;4975695;28;47043;-70
2023/07/13 12:04:26;;;;;;;17.85;1.80;;;22.50;77.10;;;;;;4981876;28;45174;-70
2023/07/13 12:06:59;;;;;;;10.68;1.63;;;22.50;77.90;;;;;;5016566;28;45245;-70
2023/07/13 12:09:29;;;;;;;9.65;2.05;;;22.40;80.20;;;;;;4983665;28;45385;-70
2023/07/13 12:11:58;;;;;;;5.85;0.93;;;22.40;80.60;;;;;;4982014;28;47271;-69
2023/07/13 12:14:26;;;;;;;12.00;1.85;;;22.30;76.90;;;;;;4981761;28;45090;-72
2023/07/13 12:16:53;;;;;;;9.07;1.48;;;22.20;79.70;;;;;;4983964;28;45102;-70
2023/07/13 12:19:23;;;;;;;10.68;1.60;;;22.20;79.30;;;;;;4981792;28;45310;-70
2023/07/13 12:21:51;;;;;;;5.55;2.28;;;22.30;76.80;;;;;;5012674;28;46220;-70
2023/07/13 12:24:22;;;;;;;10.25;1.75;;;22.40;77.50;;;;;;4980170;28;45150;-70
2023/07/13 12:26:53;;;;;;;4.82;1.30;;;22.60;79.80;;;;;;5006369;28;45489;-69
2023/07/13 12:29:20;;;;;;;4.00;1.10;;;22.60;77.10;;;;;;4981055;28;45422;-70
2023/07/13 12:31:49;;;;;;;5.35;1.40;;;22.60;77.50;;;;;;4981393;28;47394;-70
2023/07/13 12:34:18;;;;;;;9.55;1.65;;;22.70;80.00;;;;;;4970410;28;45113;-70
2023/07/13 12:36:49;;;;;;;14.25;1.30;;;22.70;77.70;;;;;;4978225;28;45300;-70
2023/07/13 12:39:20;;;;;;;6.30;1.80;;;22.80;78.40;;;;;;4973827;28;45101;-69
2023/07/13 12:41:48;;;;;;;5.38;1.45;;;22.90;76.60;;;;;;4981061;28;48618;-69
2023/07/13 12:44:18;;;;;;;6.03;1.30;;;22.80;75.40;;;;;;4973891;28;45280;-69
2023/07/13 12:46:56;;;;;;;10.63;1.63;;;22.70;74.40;;;;;;4980680;28;45384;-70
2023/07/13 12:49:27;;;;;;;5.53;1.60;;;22.70;79.60;;;;;;4981009;28;45132;-70
2023/07/13 12:51:59;;;;;;;4.43;1.75;;;22.70;72.60;;;;;;4983803;28;46244;-69